sensor_id;sensor_type;location;lat;lon;timestamp;pressure;altitude;pressure_sealevel;temperature;humidity
31225;BME280;17847;31.524;74.366;2023-06-22T00:01:37;97421.41;;;32.02;68.70
31225;BME280;17847;31.524;74.366;2023-06-22T00:04:07;97426.88;;;32.02;68.95
31225;BME280;17847;31.524;74.366;2023-06-22T00:06:36;97424.94;;;32.02;68.80
31225;BME280;17847;31.524;74.366;2023-06-22T00:09:06;97415.13;;;32.01;70.09
31225;BME280;17847;31.524;74.366;2023-06-22T00:11:39;97410.78;;;32.00;69.85
31225;BME280;17847;31.524;74.366;2023-06-22T00:14:09;97418.22;;;32.00;69.77
31225;BME280;17847;31.524;74.366;2023-06-22T00:16:38;97431.50;;;31.98;69.94
31225;BME280;17847;31.524;74.366;2023-06-22T00:19:07;97436.97;;;31.98;69.93
31225;BME280;17847;31.524;74.366;2023-06-22T00:21:40;97434.59;;;31.96;70.27
31225;BME280;17847;31.524;74.366;2023-06-22T00:24:11;97444.00;;;31.95;70.43
31225;BME280;17847;31.524;74.366;2023-06-22T00:26:40;97452.22;;;31.95;70.71
31225;BME280;17847;31.524;74.366;2023-06-22T00:29:10;97450.22;;;31.96;71.00
31225;BME280;17847;31.524;74.366;2023-06-22T00:31:40;97454.94;;;31.95;71.06
31225;BME280;17847;31.524;74.366;2023-06-22T00:34:09;97467.91;;;31.98;71.38
31225;BME280;17847;31.524;74.366;2023-06-22T00:36:39;97464.44;;;32.01;71.60
31225;BME280;17847;31.524;74.366;2023-06-22T00:39:09;97456.16;;;31.98;71.51
31225;BME280;17847;31.524;74.366;2023-06-22T00:41:39;97457.38;;;32.00;72.34
31225;BME280;17847;31.524;74.366;2023-06-22T00:44:09;97466.75;;;31.99;72.96
31225;BME280;17847;31.524;74.366;2023-06-22T00:46:38;97468.25;;;31.97;72.81
31225;BME280;17847;31.524;74.366;2023-06-22T00:49:08;97474.53;;;31.97;72.98
31225;BME280;17847;31.524;74.366;2023-06-22T00:51:38;97494.16;;;31.99;73.36
31225;BME280;17847;31.524;74.366;2023-06-22T00:54:09;97497.31;;;32.01;73.50
31225;BME280;17847;31.524;74.366;2023-06-22T00:56:41;97480.47;;;31.99;73.70
31225;BME280;17847;31.524;74.366;2023-06-22T00:59:11;97495.81;;;32.04;74.22
31225;BME280;17847;31.524;74.366;2023-06-22T01:01:41;97488.81;;;32.06;73.68
31225;BME280;17847;31.524;74.366;2023-06-22T01:04:10;97496.75;;;32.12;74.22
31225;BME280;17847;31.524;74.366;2023-06-22T01:07:34;97497.63;;;32.16;74.23
31225;BME280;17847;31.524;74.366;2023-06-22T01:10:18;97491.78;;;32.17;74.01
31225;BME280;17847;31.524;74.366;2023-06-22T01:13:02;97495.28;;;32.18;72.18
31225;BME280;17847;31.524;74.366;2023-06-22T01:15:53;97493.13;;;32.27;73.28
31225;BME280;17847;31.524;74.366;2023-06-22T01:18:28;97501.44;;;32.30;73.62
31225;BME280;17847;31.524;74.366;2023-06-22T01:21:01;97510.50;;;32.34;74.13
31225;BME280;17847;31.524;74.366;2023-06-22T01:24:33;97509.31;;;32.35;74.23
31225;BME280;17847;31.524;74.366;2023-06-22T01:29:17;97516.44;;;32.40;74.82
31225;BME280;17847;31.524;74.366;2023-06-22T01:31:50;97515.38;;;32.44;75.33
31225;BME280;17847;31.524;74.366;2023-06-22T01:34:21;97513.84;;;32.47;74.19
31225;BME280;17847;31.524;74.366;2023-06-22T01:36:53;97521.00;;;32.51;74.59
31225;BME280;17847;31.524;74.366;2023-06-22T01:39:23;97527.75;;;32.58;74.77
31225;BME280;17847;31.524;74.366;2023-06-22T01:41:53;97530.56;;;32.61;74.67
31225;BME280;17847;31.524;74.366;2023-06-22T01:44:24;97538.09;;;32.64;74.57
31225;BME280;17847;31.524;74.366;2023-06-22T01:46:55;97545.56;;;32.67;74.76
31225;BME280;17847;31.524;74.366;2023-06-22T01:49:25;97546.88;;;32.73;75.77
31225;BME280;17847;31.524;74.366;2023-06-22T01:51:54;97550.91;;;32.79;76.12
31225;BME280;17847;31.524;74.366;2023-06-22T01:54:24;97556.50;;;32.86;73.80
31225;BME280;17847;31.524;74.366;2023-06-22T01:56:54;97549.72;;;33.03;74.33
31225;BME280;17847;31.524;74.366;2023-06-22T02:02:07;97544.97;;;33.49;71.88
31225;BME280;17847;31.524;74.366;2023-06-22T02:04:46;97545.75;;;33.76;71.11
31225;BME280;17847;31.524;74.366;2023-06-22T02:07:18;97543.78;;;34.06;69.67
31225;BME280;17847;31.524;74.366;2023-06-22T02:09:51;97540.09;;;34.25;67.76
31225;BME280;17847;31.524;74.366;2023-06-22T02:12:24;97555.25;;;34.45;66.91
31225;BME280;17847;31.524;74.366;2023-06-22T02:14:57;97563.41;;;34.75;66.08
31225;BME280;17847;31.524;74.366;2023-06-22T02:17:27;97560.94;;;35.07;63.30
31225;BME280;17847;31.524;74.366;2023-06-22T02:19:56;97563.06;;;35.24;61.94
31225;BME280;17847;31.524;74.366;2023-06-22T02:22:26;97560.53;;;35.52;60.41
31225;BME280;17847;31.524;74.366;2023-06-22T02:24:56;97556.31;;;35.66;58.96
31225;BME280;17847;31.524;74.366;2023-06-22T02:27:26;97566.56;;;35.72;58.36
31225;BME280;17847;31.524;74.366;2023-06-22T02:29:55;97560.41;;;36.03;58.70
31225;BME280;17847;31.524;74.366;2023-06-22T02:32:24;97569.25;;;36.37;58.03
31225;BME280;17847;31.524;74.366;2023-06-22T02:34:54;97570.06;;;36.48;54.35
31225;BME280;17847;31.524;74.366;2023-06-22T02:37:24;97576.09;;;36.86;54.08
31225;BME280;17847;31.524;74.366;2023-06-22T02:39:54;97564.69;;;37.12;53.68
31225;BME280;17847;31.524;74.366;2023-06-22T02:42:23;97572.16;;;37.22;50.93
31225;BME280;17847;31.524;74.366;2023-06-22T02:44:53;97574.91;;;37.22;50.46
31225;BME280;17847;31.524;74.366;2023-06-22T02:47:22;97575.69;;;37.41;48.85
31225;BME280;17847;31.524;74.366;2023-06-22T02:49:51;97577.69;;;37.33;48.35
31225;BME280;17847;31.524;74.366;2023-06-22T02:52:21;97573.31;;;37.35;49.44
31225;BME280;17847;31.524;74.366;2023-06-22T02:54:51;97582.75;;;37.81;49.27
31225;BME280;17847;31.524;74.366;2023-06-22T02:57:21;97584.00;;;37.58;46.90
31225;BME280;17847;31.524;74.366;2023-06-22T02:59:50;97593.44;;;37.75;47.94
31225;BME280;17847;31.524;74.366;2023-06-22T03:02:20;97584.78;;;37.59;48.73
31225;BME280;17847;31.524;74.366;2023-06-22T03:04:51;97591.78;;;38.09;48.87
31225;BME280;17847;31.524;74.366;2023-06-22T03:07:22;97583.06;;;38.18;47.50
31225;BME280;17847;31.524;74.366;2023-06-22T03:09:54;97581.03;;;38.33;47.08
31225;BME280;17847;31.524;74.366;2023-06-22T03:12:24;97593.66;;;38.34;46.52
31225;BME280;17847;31.524;74.366;2023-06-22T03:14:54;97596.47;;;38.23;44.69
31225;BME280;17847;31.524;74.366;2023-06-22T03:17:25;97592.22;;;38.01;46.14
31225;BME280;17847;31.524;74.366;2023-06-22T03:19:54;97599.31;;;37.95;46.46
31225;BME280;17847;31.524;74.366;2023-06-22T03:22:23;97600.56;;;37.72;46.64
31225;BME280;17847;31.524;74.366;2023-06-22T03:24:53;97601.69;;;38.00;46.07
31225;BME280;17847;31.524;74.366;2023-06-22T03:27:22;97593.00;;;37.98;46.24
31225;BME280;17847;31.524;74.366;2023-06-22T03:29:51;97594.50;;;38.20;46.60
31225;BME280;17847;31.524;74.366;2023-06-22T03:32:23;97589.44;;;38.04;45.95
31225;BME280;17847;31.524;74.366;2023-06-22T03:34:54;97592.94;;;38.19;45.52
31225;BME280;17847;31.524;74.366;2023-06-22T03:37:29;97587.69;;;38.42;45.65
31225;BME280;17847;31.524;74.366;2023-06-22T03:39:59;97583.38;;;38.34;45.78
31225;BME280;17847;31.524;74.366;2023-06-22T03:42:30;97590.97;;;38.19;45.40
31225;BME280;17847;31.524;74.366;2023-06-22T03:44:59;97594.81;;;38.40;47.06
31225;BME280;17847;31.524;74.366;2023-06-22T03:47:30;97593.88;;;38.71;45.66
31225;BME280;17847;31.524;74.366;2023-06-22T03:50:00;97580.84;;;38.64;46.19
31225;BME280;17847;31.524;74.366;2023-06-22T03:52:30;97578.25;;;38.33;45.33
31225;BME280;17847;31.524;74.366;2023-06-22T03:54:59;97590.50;;;38.35;46.34
31225;BME280;17847;31.524;74.366;2023-06-22T03:57:28;97585.97;;;38.70;45.42
31225;BME280;17847;31.524;74.366;2023-06-22T03:59:58;97582.53;;;38.55;46.43
31225;BME280;17847;31.524;74.366;2023-06-22T04:02:38;97578.38;;;38.84;45.70
31225;BME280;17847;31.524;74.366;2023-06-22T04:05:09;97595.28;;;38.20;45.90
31225;BME280;17847;31.524;74.366;2023-06-22T04:07:40;97597.25;;;38.27;46.04
31225;BME280;17847;31.524;74.366;2023-06-22T04:10:10;97585.72;;;38.43;46.61
31225;BME280;17847;31.524;74.366;2023-06-22T04:12:44;97582.97;;;38.43;47.11
31225;BME280;17847;31.524;74.366;2023-06-22T04:15:13;97579.81;;;38.37;45.90
31225;BME280;17847;31.524;74.366;2023-06-22T04:17:43;97589.66;;;38.38;47.04
31225;BME280;17847;31.524;74.366;2023-06-22T04:20:12;97588.13;;;38.37;47.02
31225;BME280;17847;31.524;74.366;2023-06-22T04:22:41;97577.63;;;38.77;48.20
31225;BME280;17847;31.524;74.366;2023-06-22T04:25:11;97579.38;;;39.12;50.07
31225;BME280;17847;31.524;74.366;2023-06-22T04:27:40;97576.38;;;38.88;45.35
31225;BME280;17847;31.524;74.366;2023-06-22T04:30:10;97584.53;;;38.44;45.82
31225;BME280;17847;31.524;74.366;2023-06-22T04:32:40;97581.75;;;38.47;46.26
31225;BME280;17847;31.524;74.366;2023-06-22T04:35:10;97582.41;;;38.69;46.52
31225;BME280;17847;31.524;74.366;2023-06-22T04:37:40;97588.00;;;38.62;44.67
31225;BME280;17847;31.524;74.366;2023-06-22T04:40:10;97586.69;;;38.81;47.17
31225;BME280;17847;31.524;74.366;2023-06-22T04:42:39;97582.03;;;38.67;47.65
31225;BME280;17847;31.524;74.366;2023-06-22T04:45:09;97585.00;;;38.28;46.71
31225;BME280;17847;31.524;74.366;2023-06-22T04:47:39;97584.47;;;38.58;48.18
31225;BME280;17847;31.524;74.366;2023-06-22T04:50:09;97584.69;;;38.85;48.26
31225;BME280;17847;31.524;74.366;2023-06-22T04:52:38;97583.91;;;38.88;46.07
31225;BME280;17847;31.524;74.366;2023-06-22T04:55:08;97595.59;;;38.44;45.98
31225;BME280;17847;31.524;74.366;2023-06-22T04:57:40;97590.00;;;38.58;45.83
31225;BME280;17847;31.524;74.366;2023-06-22T05:00:13;97586.94;;;39.07;48.83
31225;BME280;17847;31.524;74.366;2023-06-22T05:02:46;97583.84;;;38.98;45.53
31225;BME280;17847;31.524;74.366;2023-06-22T05:05:16;97582.84;;;39.23;46.22
31225;BME280;17847;31.524;74.366;2023-06-22T05:07:46;97580.19;;;39.53;43.35
31225;BME280;17847;31.524;74.366;2023-06-22T05:10:21;97575.63;;;39.36;46.09
31225;BME280;17847;31.524;74.366;2023-06-22T05:12:50;97578.25;;;39.50;44.22
31225;BME280;17847;31.524;74.366;2023-06-22T05:15:20;97580.84;;;39.68;45.24
31225;BME280;17847;31.524;74.366;2023-06-22T05:17:52;97587.19;;;40.06;45.08
31225;BME280;17847;31.524;74.366;2023-06-22T05:20:22;97589.69;;;39.97;45.95
31225;BME280;17847;31.524;74.366;2023-06-22T05:22:52;97582.72;;;40.46;46.37
31225;BME280;17847;31.524;74.366;2023-06-22T05:25:22;97586.97;;;40.27;45.73
31225;BME280;17847;31.524;74.366;2023-06-22T05:27:51;97588.34;;;39.74;46.35
31225;BME280;17847;31.524;74.366;2023-06-22T05:30:21;97590.31;;;39.33;46.84
31225;BME280;17847;31.524;74.366;2023-06-22T05:32:50;97591.09;;;39.33;49.17
31225;BME280;17847;31.524;74.366;2023-06-22T05:35:22;97590.78;;;39.21;46.40
31225;BME280;17847;31.524;74.366;2023-06-22T05:37:52;97581.41;;;39.52;49.21
31225;BME280;17847;31.524;74.366;2023-06-22T05:40:21;97587.50;;;40.11;46.52
31225;BME280;17847;31.524;74.366;2023-06-22T05:42:51;97584.94;;;39.93;45.08
31225;BME280;17847;31.524;74.366;2023-06-22T05:45:20;97580.31;;;39.42;45.89
31225;BME280;17847;31.524;74.366;2023-06-22T05:47:50;97592.31;;;39.25;45.59
31225;BME280;17847;31.524;74.366;2023-06-22T05:50:29;97591.19;;;39.19;46.64
31225;BME280;17847;31.524;74.366;2023-06-22T05:52:59;97589.63;;;39.15;46.81
31225;BME280;17847;31.524;74.366;2023-06-22T05:55:29;97597.56;;;39.13;47.67
31225;BME280;17847;31.524;74.366;2023-06-22T05:58:02;97586.66;;;38.84;46.57
31225;BME280;17847;31.524;74.366;2023-06-22T06:00:35;97586.06;;;39.14;48.10
31225;BME280;17847;31.524;74.366;2023-06-22T06:03:07;97592.31;;;39.25;47.75
31225;BME280;17847;31.524;74.366;2023-06-22T06:05:40;97581.13;;;39.43;47.17
31225;BME280;17847;31.524;74.366;2023-06-22T06:08:10;97577.72;;;39.62;45.87
31225;BME280;17847;31.524;74.366;2023-06-22T06:10:40;97585.38;;;39.51;43.81
31225;BME280;17847;31.524;74.366;2023-06-22T06:13:10;97579.09;;;39.47;49.01
31225;BME280;17847;31.524;74.366;2023-06-22T06:15:40;97575.44;;;39.53;47.79
31225;BME280;17847;31.524;74.366;2023-06-22T06:18:09;97579.31;;;39.19;45.14
31225;BME280;17847;31.524;74.366;2023-06-22T06:20:39;97575.84;;;39.93;47.84
31225;BME280;17847;31.524;74.366;2023-06-22T06:23:09;97578.94;;;39.99;47.60
31225;BME280;17847;31.524;74.366;2023-06-22T06:25:38;97583.06;;;39.83;47.16
31225;BME280;17847;31.524;74.366;2023-06-22T06:28:07;97579.22;;;39.70;44.47
31225;BME280;17847;31.524;74.366;2023-06-22T06:30:37;97579.63;;;39.72;45.25
31225;BME280;17847;31.524;74.366;2023-06-22T06:33:06;97575.03;;;39.55;45.85
31225;BME280;17847;31.524;74.366;2023-06-22T06:35:38;97574.00;;;39.79;47.77
31225;BME280;17847;31.524;74.366;2023-06-22T06:38:07;97576.22;;;39.95;44.37
31225;BME280;17847;31.524;74.366;2023-06-22T06:40:36;97582.63;;;39.88;47.44
31225;BME280;17847;31.524;74.366;2023-06-22T06:43:05;97572.44;;;39.37;46.51
31225;BME280;17847;31.524;74.366;2023-06-22T06:45:36;97571.44;;;39.58;44.51
31225;BME280;17847;31.524;74.366;2023-06-22T06:48:06;97575.75;;;39.63;46.34
31225;BME280;17847;31.524;74.366;2023-06-22T06:50:35;97576.78;;;39.79;48.86
31225;BME280;17847;31.524;74.366;2023-06-22T06:53:05;97564.09;;;39.41;43.10
31225;BME280;17847;31.524;74.366;2023-06-22T06:55:34;97562.94;;;39.35;45.23
31225;BME280;17847;31.524;74.366;2023-06-22T06:58:04;97572.63;;;39.61;45.63
31225;BME280;17847;31.524;74.366;2023-06-22T07:00:36;97574.06;;;39.76;45.61
31225;BME280;17847;31.524;74.366;2023-06-22T07:03:06;97568.47;;;39.79;43.92
31225;BME280;17847;31.524;74.366;2023-06-22T07:05:36;97565.97;;;39.92;44.66
31225;BME280;17847;31.524;74.366;2023-06-22T07:08:06;97567.72;;;39.72;43.97
31225;BME280;17847;31.524;74.366;2023-06-22T07:10:35;97561.38;;;39.75;43.47
31225;BME280;17847;31.524;74.366;2023-06-22T07:13:05;97568.50;;;39.76;43.48
31225;BME280;17847;31.524;74.366;2023-06-22T07:15:35;97557.19;;;39.60;44.45
31225;BME280;17847;31.524;74.366;2023-06-22T07:18:04;97554.28;;;39.70;44.42
31225;BME280;17847;31.524;74.366;2023-06-22T07:20:33;97555.94;;;39.64;43.52
31225;BME280;17847;31.524;74.366;2023-06-22T07:23:03;97555.34;;;39.83;42.73
31225;BME280;17847;31.524;74.366;2023-06-22T07:25:33;97554.25;;;39.77;44.40
31225;BME280;17847;31.524;74.366;2023-06-22T07:28:04;97547.50;;;39.75;43.62
31225;BME280;17847;31.524;74.366;2023-06-22T07:30:35;97547.47;;;39.82;43.12
31225;BME280;17847;31.524;74.366;2023-06-22T07:33:05;97548.59;;;39.84;43.57
31225;BME280;17847;31.524;74.366;2023-06-22T07:35:37;97549.88;;;39.39;42.05
31225;BME280;17847;31.524;74.366;2023-06-22T07:38:06;97543.06;;;39.47;43.38
31225;BME280;17847;31.524;74.366;2023-06-22T07:40:37;97537.59;;;39.77;42.90
31225;BME280;17847;31.524;74.366;2023-06-22T07:43:07;97531.59;;;39.82;42.73
31225;BME280;17847;31.524;74.366;2023-06-22T07:45:38;97527.78;;;39.66;41.44
31225;BME280;17847;31.524;74.366;2023-06-22T07:48:09;97531.03;;;39.61;44.39
31225;BME280;17847;31.524;74.366;2023-06-22T07:50:38;97521.84;;;39.26;40.70
31225;BME280;17847;31.524;74.366;2023-06-22T07:53:07;97522.22;;;39.32;43.20
31225;BME280;17847;31.524;74.366;2023-06-22T07:55:39;97516.97;;;39.41;42.10
31225;BME280;17847;31.524;74.366;2023-06-22T07:58:09;97519.19;;;39.57;43.65
31225;BME280;17847;31.524;74.366;2023-06-22T08:00:39;97524.94;;;39.73;45.23
31225;BME280;17847;31.524;74.366;2023-06-22T08:03:09;97506.88;;;39.61;43.78
31225;BME280;17847;31.524;74.366;2023-06-22T08:05:39;97513.78;;;39.80;45.51
31225;BME280;17847;31.524;74.366;2023-06-22T08:08:08;97504.41;;;39.33;45.66
31225;BME280;17847;31.524;74.366;2023-06-22T08:10:37;97506.78;;;39.31;43.90
31225;BME280;17847;31.524;74.366;2023-06-22T08:13:07;97497.31;;;39.25;42.04
31225;BME280;17847;31.524;74.366;2023-06-22T08:15:37;97495.00;;;39.20;43.38
31225;BME280;17847;31.524;74.366;2023-06-22T08:18:07;97494.13;;;39.30;43.89
31225;BME280;17847;31.524;74.366;2023-06-22T08:20:36;97493.53;;;39.49;45.76
31225;BME280;17847;31.524;74.366;2023-06-22T08:23:05;97488.28;;;39.58;45.35
31225;BME280;17847;31.524;74.366;2023-06-22T08:25:36;97493.81;;;39.58;44.59
31225;BME280;17847;31.524;74.366;2023-06-22T08:28:05;97491.72;;;39.32;43.34
31225;BME280;17847;31.524;74.366;2023-06-22T08:30:36;97483.97;;;39.16;43.25
31225;BME280;17847;31.524;74.366;2023-06-22T08:33:05;97479.09;;;39.27;46.01
31225;BME280;17847;31.524;74.366;2023-06-22T08:35:35;97481.78;;;39.38;45.40
31225;BME280;17847;31.524;74.366;2023-06-22T08:38:05;97475.34;;;39.44;46.93
31225;BME280;17847;31.524;74.366;2023-06-22T08:40:35;97479.81;;;39.35;44.49
31225;BME280;17847;31.524;74.366;2023-06-22T08:43:05;97474.22;;;39.42;44.10
31225;BME280;17847;31.524;74.366;2023-06-22T08:45:34;97462.25;;;39.48;46.52
31225;BME280;17847;31.524;74.366;2023-06-22T08:48:04;97457.50;;;39.49;44.66
31225;BME280;17847;31.524;74.366;2023-06-22T08:50:34;97460.66;;;39.51;45.25
31225;BME280;17847;31.524;74.366;2023-06-22T08:53:03;97458.22;;;39.53;45.09
31225;BME280;17847;31.524;74.366;2023-06-22T08:55:33;97452.66;;;39.57;45.06
31225;BME280;17847;31.524;74.366;2023-06-22T08:58:03;97441.97;;;39.55;46.65
31225;BME280;17847;31.524;74.366;2023-06-22T09:00:33;97440.81;;;39.52;44.14
31225;BME280;17847;31.524;74.366;2023-06-22T09:03:03;97431.00;;;39.44;45.69
31225;BME280;17847;31.524;74.366;2023-06-22T09:05:34;97433.38;;;39.46;46.38
31225;BME280;17847;31.524;74.366;2023-06-22T09:08:04;97429.81;;;39.45;44.32
31225;BME280;17847;31.524;74.366;2023-06-22T09:10:34;97420.31;;;39.46;44.18
31225;BME280;17847;31.524;74.366;2023-06-22T09:13:05;97414.84;;;39.39;45.83
31225;BME280;17847;31.524;74.366;2023-06-22T09:15:35;97415.56;;;39.47;45.44
31225;BME280;17847;31.524;74.366;2023-06-22T09:18:05;97415.56;;;39.47;44.84
31225;BME280;17847;31.524;74.366;2023-06-22T09:20:34;97408.88;;;39.41;45.64
31225;BME280;17847;31.524;74.366;2023-06-22T09:23:04;97413.59;;;39.44;44.72
31225;BME280;17847;31.524;74.366;2023-06-22T09:25:34;97406.03;;;39.48;46.41
31225;BME280;17847;31.524;74.366;2023-06-22T09:28:04;97396.69;;;39.35;46.40
31225;BME280;17847;31.524;74.366;2023-06-22T09:30:33;97398.22;;;39.39;45.22
31225;BME280;17847;31.524;74.366;2023-06-22T09:33:03;97397.72;;;39.48;44.77
31225;BME280;17847;31.524;74.366;2023-06-22T09:35:32;97385.44;;;39.49;43.51
31225;BME280;17847;31.524;74.366;2023-06-22T09:38:07;97390.97;;;39.49;44.55
31225;BME280;17847;31.524;74.366;2023-06-22T09:40:37;97382.81;;;39.38;43.83
31225;BME280;17847;31.524;74.366;2023-06-22T09:43:10;97377.94;;;39.46;45.43
31225;BME280;17847;31.524;74.366;2023-06-22T09:45:40;97373.56;;;39.48;45.76
31225;BME280;17847;31.524;74.366;2023-06-22T09:48:11;97380.78;;;39.42;44.62
31225;BME280;17847;31.524;74.366;2023-06-22T09:50:42;97372.03;;;39.44;46.22
31225;BME280;17847;31.524;74.366;2023-06-22T09:53:11;97378.00;;;39.42;45.65
31225;BME280;17847;31.524;74.366;2023-06-22T09:55:42;97371.25;;;39.43;46.27
31225;BME280;17847;31.524;74.366;2023-06-22T09:58:11;97367.66;;;39.46;45.51
31225;BME280;17847;31.524;74.366;2023-06-22T10:00:41;97365.44;;;39.34;45.68
31225;BME280;17847;31.524;74.366;2023-06-22T10:03:11;97363.88;;;39.30;46.14
31225;BME280;17847;31.524;74.366;2023-06-22T10:05:42;97362.41;;;39.18;44.20
31225;BME280;17847;31.524;74.366;2023-06-22T10:08:14;97361.22;;;39.19;46.09
31225;BME280;17847;31.524;74.366;2023-06-22T10:10:43;97363.59;;;39.21;44.59
31225;BME280;17847;31.524;74.366;2023-06-22T10:13:13;97356.44;;;39.23;44.40
31225;BME280;17847;31.524;74.366;2023-06-22T10:15:43;97358.72;;;39.32;45.54
31225;BME280;17847;31.524;74.366;2023-06-22T10:18:18;97350.34;;;39.39;45.08
31225;BME280;17847;31.524;74.366;2023-06-22T10:20:50;97348.03;;;39.34;44.81
31225;BME280;17847;31.524;74.366;2023-06-22T10:23:23;97338.94;;;39.33;45.55
31225;BME280;17847;31.524;74.366;2023-06-22T10:25:52;97344.09;;;39.31;45.29
31225;BME280;17847;31.524;74.366;2023-06-22T10:28:22;97345.28;;;39.30;44.92
31225;BME280;17847;31.524;74.366;2023-06-22T10:30:57;97336.63;;;39.25;45.45
31225;BME280;17847;31.524;74.366;2023-06-22T10:33:26;97339.75;;;39.27;45.89
31225;BME280;17847;31.524;74.366;2023-06-22T10:35:56;97332.63;;;39.29;44.64
31225;BME280;17847;31.524;74.366;2023-06-22T10:38:26;97336.63;;;39.25;43.84
31225;BME280;17847;31.524;74.366;2023-06-22T10:40:56;97331.66;;;39.09;43.36
31225;BME280;17847;31.524;74.366;2023-06-22T10:43:26;97324.59;;;39.04;44.88
31225;BME280;17847;31.524;74.366;2023-06-22T10:45:56;97325.72;;;39.11;45.12
31225;BME280;17847;31.524;74.366;2023-06-22T10:48:25;97317.75;;;39.13;44.21
31225;BME280;17847;31.524;74.366;2023-06-22T10:50:55;97303.66;;;39.03;43.20
31225;BME280;17847;31.524;74.366;2023-06-22T10:53:24;97312.59;;;39.15;44.63
31225;BME280;17847;31.524;74.366;2023-06-22T10:55:54;97305.81;;;39.19;43.94
31225;BME280;17847;31.524;74.366;2023-06-22T10:58:25;97295.16;;;39.18;42.75
31225;BME280;17847;31.524;74.366;2023-06-22T11:00:55;97284.50;;;39.16;43.10
31225;BME280;17847;31.524;74.366;2023-06-22T11:03:25;97288.06;;;39.13;44.10
31225;BME280;17847;31.524;74.366;2023-06-22T11:05:54;97288.47;;;39.15;43.47
31225;BME280;17847;31.524;74.366;2023-06-22T11:08:24;97286.09;;;39.14;43.14
31225;BME280;17847;31.524;74.366;2023-06-22T11:10:53;97284.13;;;39.14;42.45
31225;BME280;17847;31.524;74.366;2023-06-22T11:13:24;97279.31;;;39.18;41.88
31225;BME280;17847;31.524;74.366;2023-06-22T11:15:54;97292.03;;;39.16;42.83
31225;BME280;17847;31.524;74.366;2023-06-22T11:18:24;97281.84;;;39.05;43.45
31225;BME280;17847;31.524;74.366;2023-06-22T11:20:53;97286.25;;;39.03;42.95
31225;BME280;17847;31.524;74.366;2023-06-22T11:23:23;97277.16;;;39.02;40.54
31225;BME280;17847;31.524;74.366;2023-06-22T11:25:55;97278.63;;;39.11;40.40
31225;BME280;17847;31.524;74.366;2023-06-22T11:28:24;97273.94;;;39.07;43.00
31225;BME280;17847;31.524;74.366;2023-06-22T11:30:54;97261.72;;;39.01;42.22
31225;BME280;17847;31.524;74.366;2023-06-22T11:33:25;97264.16;;;38.96;41.98
31225;BME280;17847;31.524;74.366;2023-06-22T11:35:56;97264.22;;;38.92;41.74
31225;BME280;17847;31.524;74.366;2023-06-22T11:38:26;97265.84;;;38.86;43.52
31225;BME280;17847;31.524;74.366;2023-06-22T11:40:55;97259.56;;;38.82;42.25
31225;BME280;17847;31.524;74.366;2023-06-22T11:43:25;97261.56;;;38.78;41.60
31225;BME280;17847;31.524;74.366;2023-06-22T11:45:54;97252.19;;;38.72;42.34
31225;BME280;17847;31.524;74.366;2023-06-22T11:48:25;97253.31;;;38.75;41.45
31225;BME280;17847;31.524;74.366;2023-06-22T11:50:55;97260.47;;;38.72;41.83
31225;BME280;17847;31.524;74.366;2023-06-22T11:53:27;97257.38;;;38.67;42.35
31225;BME280;17847;31.524;74.366;2023-06-22T11:55:56;97244.78;;;38.62;41.96
31225;BME280;17847;31.524;74.366;2023-06-22T11:58:27;97257.47;;;38.56;42.69
31225;BME280;17847;31.524;74.366;2023-06-22T12:00:57;97247.69;;;38.48;44.13
31225;BME280;17847;31.524;74.366;2023-06-22T12:03:26;97245.78;;;38.41;44.51
31225;BME280;17847;31.524;74.366;2023-06-22T12:05:56;97247.34;;;38.39;44.54
31225;BME280;17847;31.524;74.366;2023-06-22T12:08:26;97241.47;;;38.33;45.49
31225;BME280;17847;31.524;74.366;2023-06-22T12:10:55;97244.28;;;38.30;45.24
31225;BME280;17847;31.524;74.366;2023-06-22T12:13:26;97236.81;;;38.27;45.81
31225;BME280;17847;31.524;74.366;2023-06-22T12:15:55;97236.44;;;38.25;45.27
31225;BME280;17847;31.524;74.366;2023-06-22T12:18:25;97219.09;;;38.20;45.43
31225;BME280;17847;31.524;74.366;2023-06-22T12:20:54;97229.00;;;38.18;45.84
31225;BME280;17847;31.524;74.366;2023-06-22T12:23:24;97218.38;;;38.13;45.63
31225;BME280;17847;31.524;74.366;2023-06-22T12:25:54;97226.25;;;38.18;45.99
31225;BME280;17847;31.524;74.366;2023-06-22T12:28:23;97229.44;;;38.13;46.43
31225;BME280;17847;31.524;74.366;2023-06-22T12:30:53;97216.84;;;38.08;45.49
31225;BME280;17847;31.524;74.366;2023-06-22T12:33:22;97218.88;;;38.04;46.19
31225;BME280;17847;31.524;74.366;2023-06-22T12:35:52;97217.72;;;37.98;47.87
31225;BME280;17847;31.524;74.366;2023-06-22T12:38:21;97221.69;;;37.94;48.51
31225;BME280;17847;31.524;74.366;2023-06-22T12:40:51;97212.28;;;37.88;47.70
31225;BME280;17847;31.524;74.366;2023-06-22T12:43:20;97219.38;;;37.85;47.30
31225;BME280;17847;31.524;74.366;2023-06-22T12:45:50;97220.13;;;37.93;46.39
31225;BME280;17847;31.524;74.366;2023-06-22T12:48:20;97224.44;;;37.94;47.03
31225;BME280;17847;31.524;74.366;2023-06-22T12:50:50;97221.69;;;37.94;47.36
31225;BME280;17847;31.524;74.366;2023-06-22T12:53:21;97223.28;;;37.91;47.59
31225;BME280;17847;31.524;74.366;2023-06-22T12:55:52;97222.91;;;37.89;47.80
31225;BME280;17847;31.524;74.366;2023-06-22T12:58:22;97222.09;;;37.92;46.77
31225;BME280;17847;31.524;74.366;2023-06-22T13:00:51;97219.38;;;37.85;47.13
31225;BME280;17847;31.524;74.366;2023-06-22T13:03:21;97223.38;;;37.84;46.97
31225;BME280;17847;31.524;74.366;2023-06-22T13:05:51;97222.59;;;37.80;47.51
31225;BME280;17847;31.524;74.366;2023-06-22T13:08:20;97224.16;;;37.81;46.98
31225;BME280;17847;31.524;74.366;2023-06-22T13:11:11;97228.91;;;37.81;47.15
31225;BME280;17847;31.524;74.366;2023-06-22T13:13:41;97227.28;;;37.87;47.03